sensor_id;sensor_type;location;lat;lon;timestamp;pressure;altitude;pressure_sealevel;temperature;humidity
48156;BME280;35568;48.104;11.782;2023-02-19T00:00:24;95833.88;;;11.08;42.84
48156;BME280;35568;48.104;11.782;2023-02-19T00:02:51;95826.81;;;11.11;42.92
48156;BME280;35568;48.104;11.782;2023-02-19T00:05:18;95822.62;;;11.22;42.99
48156;BME280;35568;48.104;11.782;2023-02-19T00:07:45;95816.86;;;10.93;43.03
48156;BME280;35568;48.104;11.782;2023-02-19T00:10:12;95820.59;;;11.19;43.47
48156;BME280;35568;48.104;11.782;2023-02-19T00:12:38;95814.98;;;10.99;43.77
48156;BME280;35568;48.104;11.782;2023-02-19T00:15:06;95814.06;;;10.36;43.95
48156;BME280;35568;48.104;11.782;2023-02-19T00:17:33;95818.57;;;10.82;44.00
48156;BME280;35568;48.104;11.782;2023-02-19T00:20:00;95815.38;;;10.53;44.24
48156;BME280;35568;48.104;11.782;2023-02-19T00:22:27;95811.98;;;9.38;43.83
48156;BME280;35568;48.104;11.782;2023-02-19T00:24:54;95805.72;;;11.14;43.09
48156;BME280;35568;48.104;11.782;2023-02-19T00:27:21;95808.10;;;11.14;43.65
48156;BME280;35568;48.104;11.782;2023-02-19T00:29:48;95798.64;;;10.95;43.67
48156;BME280;35568;48.104;11.782;2023-02-19T00:32:15;95800.50;;;10.88;43.85
48156;BME280;35568;48.104;11.782;2023-02-19T00:34:42;95800.97;;;10.94;43.99
48156;BME280;35568;48.104;11.782;2023-02-19T00:37:08;95802.21;;;10.62;44.68
48156;BME280;35568;48.104;11.782;2023-02-19T00:39:35;95800.82;;;10.66;44.47
48156;BME280;35568;48.104;11.782;2023-02-19T00:42:02;95803.11;;;10.61;44.29
48156;BME280;35568;48.104;11.782;2023-02-19T00:44:29;95800.96;;;10.86;44.29
48156;BME280;35568;48.104;11.782;2023-02-19T00:46:55;95797.66;;;10.81;44.06
48156;BME280;35568;48.104;11.782;2023-02-19T00:49:23;95795.59;;;10.78;44.40
48156;BME280;35568;48.104;11.782;2023-02-19T00:51:50;95795.75;;;10.84;44.33
48156;BME280;35568;48.104;11.782;2023-02-19T00:54:18;95794.89;;;10.61;44.55
48156;BME280;35568;48.104;11.782;2023-02-19T00:56:45;95794.34;;;10.37;44.43
48156;BME280;35568;48.104;11.782;2023-02-19T00:59:12;95790.68;;;10.30;44.61
48156;BME280;35568;48.104;11.782;2023-02-19T01:01:40;95784.41;;;10.89;44.27
48156;BME280;35568;48.104;11.782;2023-02-19T01:04:07;95785.35;;;10.55;44.61
48156;BME280;35568;48.104;11.782;2023-02-19T01:06:34;95779.35;;;10.69;44.16
48156;BME280;35568;48.104;11.782;2023-02-19T01:09:03;95777.48;;;10.38;44.29
48156;BME280;35568;48.104;11.782;2023-02-19T01:11:30;95774.42;;;10.96;44.26
48156;BME280;35568;48.104;11.782;2023-02-19T01:13:59;95770.46;;;10.99;44.16
48156;BME280;35568;48.104;11.782;2023-02-19T01:16:26;95771.47;;;10.59;44.55
48156;BME280;35568;48.104;11.782;2023-02-19T01:18:53;95769.94;;;10.93;44.14
48156;BME280;35568;48.104;11.782;2023-02-19T01:21:24;95767.49;;;10.57;44.27
48156;BME280;35568;48.104;11.782;2023-02-19T01:23:52;95764.24;;;10.45;44.44
48156;BME280;35568;48.104;11.782;2023-02-19T01:26:20;95765.91;;;10.71;44.12
48156;BME280;35568;48.104;11.782;2023-02-19T01:28:48;95760.69;;;11.05;44.05
48156;BME280;35568;48.104;11.782;2023-02-19T01:31:17;95759.98;;;10.72;44.02
48156;BME280;35568;48.104;11.782;2023-02-19T01:33:45;95755.99;;;10.65;44.42
48156;BME280;35568;48.104;11.782;2023-02-19T01:36:14;95752.54;;;10.70;44.59
48156;BME280;35568;48.104;11.782;2023-02-19T01:38:41;95753.67;;;10.63;44.75
48156;BME280;35568;48.104;11.782;2023-02-19T01:41:11;95751.21;;;10.51;44.55
48156;BME280;35568;48.104;11.782;2023-02-19T01:43:57;95752.79;;;10.37;44.96
48156;BME280;35568;48.104;11.782;2023-02-19T01:46:25;95749.69;;;10.37;44.78
48156;BME280;35568;48.104;11.782;2023-02-19T01:48:53;95753.84;;;10.46;44.74
48156;BME280;35568;48.104;11.782;2023-02-19T01:51:21;95745.43;;;10.33;44.70
48156;BME280;35568;48.104;11.782;2023-02-19T01:53:54;95739.83;;;10.33;44.75
48156;BME280;35568;48.104;11.782;2023-02-19T01:56:22;95745.05;;;10.09;44.68
48156;BME280;35568;48.104;11.782;2023-02-19T01:58:52;95738.11;;;10.56;44.73
48156;BME280;35568;48.104;11.782;2023-02-19T02:01:19;95729.42;;;10.21;44.64
48156;BME280;35568;48.104;11.782;2023-02-19T02:03:47;95733.44;;;10.84;44.39
48156;BME280;35568;48.104;11.782;2023-02-19T02:06:20;95730.79;;;10.28;44.71
48156;BME280;35568;48.104;11.782;2023-02-19T02:08:50;95725.02;;;10.42;44.65
48156;BME280;35568;48.104;11.782;2023-02-19T02:11:17;95725.35;;;10.48;44.79
48156;BME280;35568;48.104;11.782;2023-02-19T02:13:46;95724.36;;;10.48;44.90
48156;BME280;35568;48.104;11.782;2023-02-19T02:16:22;95729.41;;;10.41;44.68
48156;BME280;35568;48.104;11.782;2023-02-19T02:18:58;95719.71;;;10.77;44.64
48156;BME280;35568;48.104;11.782;2023-02-19T02:21:42;95720.02;;;10.37;44.97
48156;BME280;35568;48.104;11.782;2023-02-19T02:24:35;95721.23;;;10.38;45.07
48156;BME280;35568;48.104;11.782;2023-02-19T02:27:16;95723.52;;;10.55;45.46
48156;BME280;35568;48.104;11.782;2023-02-19T02:30:03;95716.13;;;10.73;46.06
48156;BME280;35568;48.104;11.782;2023-02-19T02:32:38;95710.63;;;10.23;46.67
48156;BME280;35568;48.104;11.782;2023-02-19T02:35:09;95709.79;;;10.35;47.18
48156;BME280;35568;48.104;11.782;2023-02-19T02:37:39;95708.39;;;10.03;48.28
48156;BME280;35568;48.104;11.782;2023-02-19T02:40:09;95707.06;;;10.26;48.30
48156;BME280;35568;48.104;11.782;2023-02-19T02:42:38;95696.86;;;9.89;48.72
48156;BME280;35568;48.104;11.782;2023-02-19T02:45:22;95699.03;;;9.95;49.01
48156;BME280;35568;48.104;11.782;2023-02-19T02:47:52;95707.53;;;9.97;49.23
48156;BME280;35568;48.104;11.782;2023-02-19T02:50:23;95706.88;;;9.53;49.48
48156;BME280;35568;48.104;11.782;2023-02-19T02:52:55;95707.31;;;9.56;50.14
48156;BME280;35568;48.104;11.782;2023-02-19T02:55:25;95706.52;;;9.77;50.25
48156;BME280;35568;48.104;11.782;2023-02-19T02:57:55;95696.52;;;9.50;50.68
48156;BME280;35568;48.104;11.782;2023-02-19T03:00:23;95688.43;;;9.35;51.51
48156;BME280;35568;48.104;11.782;2023-02-19T03:02:52;95683.49;;;9.04;51.83
48156;BME280;35568;48.104;11.782;2023-02-19T03:05:23;95683.67;;;9.07;53.46
48156;BME280;35568;48.104;11.782;2023-02-19T03:07:53;95676.67;;;8.75;53.60
48156;BME280;35568;48.104;11.782;2023-02-19T03:10:27;95669.52;;;8.55;54.34
48156;BME280;35568;48.104;11.782;2023-02-19T03:12:58;95667.50;;;8.72;55.20
48156;BME280;35568;48.104;11.782;2023-02-19T03:15:28;95671.05;;;8.57;55.15
48156;BME280;35568;48.104;11.782;2023-02-19T03:18:01;95668.05;;;8.56;55.46
48156;BME280;35568;48.104;11.782;2023-02-19T03:20:33;95669.26;;;8.44;55.61
48156;BME280;35568;48.104;11.782;2023-02-19T03:23:01;95670.18;;;8.30;55.83
48156;BME280;35568;48.104;11.782;2023-02-19T03:25:31;95665.80;;;8.39;55.87
48156;BME280;35568;48.104;11.782;2023-02-19T03:28:01;95669.72;;;8.57;56.27
48156;BME280;35568;48.104;11.782;2023-02-19T03:30:33;95679.00;;;8.46;57.01
48156;BME280;35568;48.104;11.782;2023-02-19T03:33:03;95680.11;;;8.56;57.56
48156;BME280;35568;48.104;11.782;2023-02-19T03:35:35;95673.37;;;8.18;57.79
48156;BME280;35568;48.104;11.782;2023-02-19T03:38:10;95673.52;;;8.11;58.22
48156;BME280;35568;48.104;11.782;2023-02-19T03:40:44;95667.44;;;8.07;57.98
48156;BME280;35568;48.104;11.782;2023-02-19T03:43:18;95673.08;;;8.10;58.42
48156;BME280;35568;48.104;11.782;2023-02-19T03:45:54;95677.87;;;7.58;59.29
48156;BME280;35568;48.104;11.782;2023-02-19T03:48:27;95680.15;;;7.69;59.46
48156;BME280;35568;48.104;11.782;2023-02-19T03:51:04;95685.50;;;7.80;59.55
48156;BME280;35568;48.104;11.782;2023-02-19T03:53:43;95686.20;;;7.51;59.62
48156;BME280;35568;48.104;11.782;2023-02-19T03:56:17;95684.75;;;7.35;61.09
48156;BME280;35568;48.104;11.782;2023-02-19T03:58:53;95665.93;;;6.82;61.67
48156;BME280;35568;48.104;11.782;2023-02-19T04:03:06;95668.15;;;7.03;61.64
48156;BME280;35568;48.104;11.782;2023-02-19T04:05:40;95672.56;;;7.26;61.74
48156;BME280;35568;48.104;11.782;2023-02-19T04:08:13;95674.38;;;7.04;61.73
48156;BME280;35568;48.104;11.782;2023-02-19T04:10:43;95663.05;;;7.43;61.69
48156;BME280;35568;48.104;11.782;2023-02-19T04:13:14;95670.24;;;7.34;61.82
48156;BME280;35568;48.104;11.782;2023-02-19T04:15:44;95670.20;;;7.07;61.53
48156;BME280;35568;48.104;11.782;2023-02-19T04:18:15;95661.74;;;7.05;62.24
48156;BME280;35568;48.104;11.782;2023-02-19T04:20:44;95662.25;;;7.10;62.14
48156;BME280;35568;48.104;11.782;2023-02-19T04:23:12;95659.48;;;7.07;61.87
48156;BME280;35568;48.104;11.782;2023-02-19T04:25:43;95669.37;;;7.38;61.45
48156;BME280;35568;48.104;11.782;2023-02-19T04:28:12;95648.05;;;7.63;61.10
48156;BME280;35568;48.104;11.782;2023-02-19T04:30:40;95651.41;;;6.87;61.40
48156;BME280;35568;48.104;11.782;2023-02-19T04:33:06;95654.91;;;7.33;61.04
48156;BME280;35568;48.104;11.782;2023-02-19T04:35:33;95656.05;;;7.10;60.96
48156;BME280;35568;48.104;11.782;2023-02-19T04:38:00;95655.94;;;7.26;61.31
48156;BME280;35568;48.104;11.782;2023-02-19T04:40:27;95664.33;;;7.15;61.20
48156;BME280;35568;48.104;11.782;2023-02-19T04:42:53;95669.51;;;7.28;61.16
48156;BME280;35568;48.104;11.782;2023-02-19T04:45:20;95673.81;;;7.25;60.54
48156;BME280;35568;48.104;11.782;2023-02-19T04:47:47;95672.96;;;7.41;60.46
48156;BME280;35568;48.104;11.782;2023-02-19T04:50:14;95668.38;;;7.33;60.42
48156;BME280;35568;48.104;11.782;2023-02-19T04:52:41;95675.50;;;7.38;60.46
48156;BME280;35568;48.104;11.782;2023-02-19T04:55:09;95683.31;;;7.15;60.01
48156;BME280;35568;48.104;11.782;2023-02-19T04:57:36;95684.78;;;7.31;60.36
48156;BME280;35568;48.104;11.782;2023-02-19T05:00:03;95681.38;;;7.22;60.61
48156;BME280;35568;48.104;11.782;2023-02-19T05:02:30;95685.16;;;7.12;60.60
48156;BME280;35568;48.104;11.782;2023-02-19T05:04:57;95675.59;;;7.42;59.99
48156;BME280;35568;48.104;11.782;2023-02-19T05:07:24;95684.04;;;6.93;60.14
48156;BME280;35568;48.104;11.782;2023-02-19T05:09:51;95685.68;;;7.52;59.73
48156;BME280;35568;48.104;11.782;2023-02-19T05:12:18;95688.87;;;6.98;59.69
48156;BME280;35568;48.104;11.782;2023-02-19T05:14:45;95690.18;;;7.43;59.43
48156;BME280;35568;48.104;11.782;2023-02-19T05:17:11;95690.43;;;7.14;59.77
48156;BME280;35568;48.104;11.782;2023-02-19T05:19:38;95688.52;;;7.41;59.66
48156;BME280;35568;48.104;11.782;2023-02-19T05:22:05;95694.83;;;7.26;59.46
48156;BME280;35568;48.104;11.782;2023-02-19T05:24:32;95692.01;;;7.29;59.71
48156;BME280;35568;48.104;11.782;2023-02-19T05:26:59;95689.94;;;7.49;59.83
48156;BME280;35568;48.104;11.782;2023-02-19T05:29:26;95690.60;;;7.28;59.77
48156;BME280;35568;48.104;11.782;2023-02-19T05:31:53;95696.94;;;7.45;59.25
48156;BME280;35568;48.104;11.782;2023-02-19T05:34:20;95696.03;;;7.44;58.72
48156;BME280;35568;48.104;11.782;2023-02-19T05:36:46;95697.95;;;7.73;58.20
48156;BME280;35568;48.104;11.782;2023-02-19T05:39:13;95700.21;;;7.19;58.28
48156;BME280;35568;48.104;11.782;2023-02-19T05:41:40;95701.79;;;7.27;58.35
48156;BME280;35568;48.104;11.782;2023-02-19T05:44:09;95708.83;;;7.64;58.32
48156;BME280;35568;48.104;11.782;2023-02-19T05:46:36;95715.25;;;7.63;57.92
48156;BME280;35568;48.104;11.782;2023-02-19T05:49:03;95709.81;;;7.68;57.81
48156;BME280;35568;48.104;11.782;2023-02-19T05:51:29;95708.74;;;7.49;57.77
48156;BME280;35568;48.104;11.782;2023-02-19T05:53:56;95705.56;;;7.89;57.51
48156;BME280;35568;48.104;11.782;2023-02-19T05:56:30;95713.51;;;7.53;57.58
48156;BME280;35568;48.104;11.782;2023-02-19T05:58:59;95722.38;;;7.82;57.40
48156;BME280;35568;48.104;11.782;2023-02-19T06:01:28;95717.70;;;7.57;57.27
48156;BME280;35568;48.104;11.782;2023-02-19T06:03:55;95725.40;;;7.38;56.71
48156;BME280;35568;48.104;11.782;2023-02-19T06:06:23;95723.26;;;7.56;56.66
48156;BME280;35568;48.104;11.782;2023-02-19T06:08:52;95731.11;;;7.85;57.22
48156;BME280;35568;48.104;11.782;2023-02-19T06:11:19;95729.56;;;7.44;56.98
48156;BME280;35568;48.104;11.782;2023-02-19T06:13:46;95732.94;;;7.71;56.90
48156;BME280;35568;48.104;11.782;2023-02-19T06:16:13;95737.40;;;7.54;56.45
48156;BME280;35568;48.104;11.782;2023-02-19T06:18:39;95732.30;;;7.86;56.07
48156;BME280;35568;48.104;11.782;2023-02-19T06:21:09;95737.44;;;8.00;55.83
48156;BME280;35568;48.104;11.782;2023-02-19T06:23:36;95729.52;;;7.96;56.13
48156;BME280;35568;48.104;11.782;2023-02-19T06:26:07;95732.01;;;7.74;55.98
48156;BME280;35568;48.104;11.782;2023-02-19T06:28:34;95742.14;;;7.29;55.77
48156;BME280;35568;48.104;11.782;2023-02-19T06:31:02;95739.80;;;7.88;55.73
48156;BME280;35568;48.104;11.782;2023-02-19T06:33:29;95742.97;;;7.52;55.90
48156;BME280;35568;48.104;11.782;2023-02-19T06:35:58;95746.83;;;7.87;55.82
48156;BME280;35568;48.104;11.782;2023-02-19T06:38:25;95752.54;;;7.44;56.36
48156;BME280;35568;48.104;11.782;2023-02-19T06:40:53;95759.21;;;7.54;56.07
48156;BME280;35568;48.104;11.782;2023-02-19T06:43:20;95762.54;;;7.40;56.68
48156;BME280;35568;48.104;11.782;2023-02-19T06:45:47;95762.04;;;7.88;55.77
48156;BME280;35568;48.104;11.782;2023-02-19T06:48:14;95761.59;;;7.74;55.84
48156;BME280;35568;48.104;11.782;2023-02-19T06:50:41;95758.80;;;7.54;56.49
48156;BME280;35568;48.104;11.782;2023-02-19T06:53:08;95765.80;;;7.58;56.09
48156;BME280;35568;48.104;11.782;2023-02-19T06:55:34;95772.53;;;7.74;56.38
48156;BME280;35568;48.104;11.782;2023-02-19T06:58:02;95773.60;;;7.86;55.55
48156;BME280;35568;48.104;11.782;2023-02-19T07:00:28;95781.29;;;7.84;55.65
48156;BME280;35568;48.104;11.782;2023-02-19T07:02:55;95783.45;;;8.04;55.60
48156;BME280;35568;48.104;11.782;2023-02-19T07:05:22;95786.25;;;7.92;55.42
48156;BME280;35568;48.104;11.782;2023-02-19T07:07:49;95789.44;;;8.25;54.91
48156;BME280;35568;48.104;11.782;2023-02-19T07:10:16;95796.74;;;8.12;54.50
48156;BME280;35568;48.104;11.782;2023-02-19T07:12:43;95796.95;;;8.26;54.67
48156;BME280;35568;48.104;11.782;2023-02-19T07:15:10;95805.52;;;8.47;54.50
48156;BME280;35568;48.104;11.782;2023-02-19T07:17:37;95809.90;;;8.09;54.70
48156;BME280;35568;48.104;11.782;2023-02-19T07:20:04;95809.94;;;7.80;54.97
48156;BME280;35568;48.104;11.782;2023-02-19T07:22:32;95816.69;;;8.08;54.73
48156;BME280;35568;48.104;11.782;2023-02-19T07:24:58;95815.96;;;8.38;54.30
48156;BME280;35568;48.104;11.782;2023-02-19T07:27:25;95815.43;;;8.80;54.44
48156;BME280;35568;48.104;11.782;2023-02-19T07:29:52;95820.78;;;8.27;54.73
48156;BME280;35568;48.104;11.782;2023-02-19T07:32:19;95812.09;;;8.27;54.85
48156;BME280;35568;48.104;11.782;2023-02-19T07:34:46;95818.23;;;7.99;55.44
48156;BME280;35568;48.104;11.782;2023-02-19T07:37:13;95815.81;;;8.33;55.31
48156;BME280;35568;48.104;11.782;2023-02-19T07:39:40;95826.78;;;8.23;55.55
48156;BME280;35568;48.104;11.782;2023-02-19T07:42:06;95821.36;;;8.03;55.80
48156;BME280;35568;48.104;11.782;2023-02-19T07:44:33;95826.33;;;7.97;55.39
48156;BME280;35568;48.104;11.782;2023-02-19T07:47:00;95830.95;;;8.27;55.48
48156;BME280;35568;48.104;11.782;2023-02-19T07:49:27;95830.01;;;8.20;54.91
48156;BME280;35568;48.104;11.782;2023-02-19T07:51:54;95834.07;;;8.48;54.97
48156;BME280;35568;48.104;11.782;2023-02-19T07:54:20;95841.47;;;8.54;55.12
48156;BME280;35568;48.104;11.782;2023-02-19T07:56:47;95841.52;;;8.36;55.36
48156;BME280;35568;48.104;11.782;2023-02-19T07:59:14;95849.97;;;8.43;54.99
48156;BME280;35568;48.104;11.782;2023-02-19T08:01:41;95857.11;;;8.71;55.15
48156;BME280;35568;48.104;11.782;2023-02-19T08:04:09;95858.35;;;8.46;54.64
48156;BME280;35568;48.104;11.782;2023-02-19T08:06:37;95865.32;;;8.57;54.66
48156;BME280;35568;48.104;11.782;2023-02-19T08:09:04;95867.26;;;8.31;54.80
48156;BME280;35568;48.104;11.782;2023-02-19T08:11:31;95869.98;;;8.35;55.05
48156;BME280;35568;48.104;11.782;2023-02-19T08:13:59;95876.42;;;8.52;55.03
48156;BME280;35568;48.104;11.782;2023-02-19T08:16:26;95875.92;;;8.39;54.70
48156;BME280;35568;48.104;11.782;2023-02-19T08:18:52;95873.21;;;8.61;54.41
48156;BME280;35568;48.104;11.782;2023-02-19T08:21:20;95877.98;;;8.34;54.41
48156;BME280;35568;48.104;11.782;2023-02-19T08:23:47;95884.60;;;8.57;54.39
48156;BME280;35568;48.104;11.782;2023-02-19T08:26:14;95885.02;;;8.59;54.33
48156;BME280;35568;48.104;11.782;2023-02-19T08:28:40;95887.19;;;8.69;54.26
48156;BME280;35568;48.104;11.782;2023-02-19T08:31:10;95883.36;;;8.94;54.00
48156;BME280;35568;48.104;11.782;2023-02-19T08:33:37;95885.34;;;9.09;53.59
48156;BME280;35568;48.104;11.782;2023-02-19T08:36:07;95889.61;;;9.19;53.32
48156;BME280;35568;48.104;11.782;2023-02-19T08:38:35;95891.22;;;9.07;53.20
48156;BME280;35568;48.104;11.782;2023-02-19T08:41:04;95899.70;;;8.98;53.16
48156;BME280;35568;48.104;11.782;2023-02-19T08:43:31;95896.54;;;9.42;53.07
48156;BME280;35568;48.104;11.782;2023-02-19T08:45:59;95903.83;;;8.63;53.90
48156;BME280;35568;48.104;11.782;2023-02-19T08:48:26;95902.83;;;8.93;53.58
48156;BME280;35568;48.104;11.782;2023-02-19T08:50:55;95907.08;;;9.19;53.57
48156;BME280;35568;48.104;11.782;2023-02-19T08:53:22;95914.97;;;9.45;53.01
48156;BME280;35568;48.104;11.782;2023-02-19T08:55:51;95917.65;;;9.72;52.88
48156;BME280;35568;48.104;11.782;2023-02-19T08:58:18;95922.74;;;9.44;51.68
48156;BME280;35568;48.104;11.782;2023-02-19T09:00:45;95922.99;;;9.43;51.62
48156;BME280;35568;48.104;11.782;2023-02-19T09:03:13;95929.73;;;9.68;51.85
48156;BME280;35568;48.104;11.782;2023-02-19T09:05:41;95926.36;;;9.47;51.85
48156;BME280;35568;48.104;11.782;2023-02-19T09:08:08;95925.89;;;9.52;51.48
48156;BME280;35568;48.104;11.782;2023-02-19T09:10:34;95928.44;;;9.57;51.73
48156;BME280;35568;48.104;11.782;2023-02-19T09:13:01;95928.48;;;9.41;51.75
48156;BME280;35568;48.104;11.782;2023-02-19T09:15:28;95921.88;;;9.03;52.43
48156;BME280;35568;48.104;11.782;2023-02-19T09:17:55;95926.87;;;8.90;51.43
48156;BME280;35568;48.104;11.782;2023-02-19T09:20:23;95923.65;;;8.61;52.02
48156;BME280;35568;48.104;11.782;2023-02-19T09:22:50;95921.64;;;8.88;51.75
48156;BME280;35568;48.104;11.782;2023-02-19T09:25:22;95924.67;;;8.57;52.03
48156;BME280;35568;48.104;11.782;2023-02-19T09:27:53;95922.17;;;8.71;51.74
48156;BME280;35568;48.104;11.782;2023-02-19T09:30:20;95924.66;;;8.33;51.88
48156;BME280;35568;48.104;11.782;2023-02-19T09:32:47;95922.24;;;8.37;53.07
48156;BME280;35568;48.104;11.782;2023-02-19T09:35:14;95930.96;;;8.60;53.23
48156;BME280;35568;48.104;11.782;2023-02-19T09:37:41;95931.68;;;8.11;52.87
48156;BME280;35568;48.104;11.782;2023-02-19T09:40:09;95926.98;;;8.55;52.39
48156;BME280;35568;48.104;11.782;2023-02-19T09:42:39;95930.54;;;8.45;51.85
48156;BME280;35568;48.104;11.782;2023-02-19T09:45:12;95931.64;;;8.62;51.19
48156;BME280;35568;48.104;11.782;2023-02-19T09:47:41;95940.53;;;8.74;50.60
48156;BME280;35568;48.104;11.782;2023-02-19T09:50:11;95941.14;;;8.62;49.12
48156;BME280;35568;48.104;11.782;2023-02-19T09:52:44;95933.89;;;8.74;48.98
48156;BME280;35568;48.104;11.782;2023-02-19T09:55:15;95931.83;;;8.90;48.24
48156;BME280;35568;48.104;11.782;2023-02-19T09:57:44;95942.89;;;8.42;48.24
48156;BME280;35568;48.104;11.782;2023-02-19T10:00:21;95945.36;;;8.68;48.46
48156;BME280;35568;48.104;11.782;2023-02-19T10:02:53;95952.40;;;8.57;48.38
48156;BME280;35568;48.104;11.782;2023-02-19T10:05:21;95962.96;;;8.51;48.51
48156;BME280;35568;48.104;11.782;2023-02-19T10:07:52;95961.50;;;8.33;48.63
48156;BME280;35568;48.104;11.782;2023-02-19T10:10:25;95964.41;;;8.03;48.60
48156;BME280;35568;48.104;11.782;2023-02-19T10:12:55;95966.40;;;8.22;48.45
48156;BME280;35568;48.104;11.782;2023-02-19T10:15:28;95956.04;;;8.42;47.23
48156;BME280;35568;48.104;11.782;2023-02-19T10:17:58;95973.54;;;8.21;47.36
48156;BME280;35568;48.104;11.782;2023-02-19T10:20:26;95959.67;;;8.31;47.24
48156;BME280;35568;48.104;11.782;2023-02-19T10:23:01;95967.01;;;8.40;47.75
48156;BME280;35568;48.104;11.782;2023-02-19T10:25:30;95962.22;;;8.76;46.40
48156;BME280;35568;48.104;11.782;2023-02-19T10:27:59;95953.36;;;9.15;45.53
48156;BME280;35568;48.104;11.782;2023-02-19T10:30:29;95959.94;;;9.29;45.19
48156;BME280;35568;48.104;11.782;2023-02-19T10:33:01;95957.42;;;9.42;44.58
48156;BME280;35568;48.104;11.782;2023-02-19T10:35:28;95958.98;;;9.32;44.23
48156;BME280;35568;48.104;11.782;2023-02-19T10:37:55;95964.25;;;9.59;43.81
48156;BME280;35568;48.104;11.782;2023-02-19T10:40:25;95967.76;;;9.55;43.53
48156;BME280;35568;48.104;11.782;2023-02-19T10:42:55;95977.13;;;10.04;43.59
48156;BME280;35568;48.104;11.782;2023-02-19T10:45:24;95967.14;;;10.39;42.88
48156;BME280;35568;48.104;11.782;2023-02-19T10:47:54;95964.42;;;10.74;41.26
48156;BME280;35568;48.104;11.782;2023-02-19T10:50:26;95969.97;;;10.47;40.66
48156;BME280;35568;48.104;11.782;2023-02-19T10:52:56;95970.34;;;9.89;41.70
48156;BME280;35568;48.104;11.782;2023-02-19T10:55:28;95969.01;;;9.55;42.78
48156;BME280;35568;48.104;11.782;2023-02-19T10:57:55;95976.17;;;10.53;42.19
48156;BME280;35568;48.104;11.782;2023-02-19T11:00:24;95969.45;;;11.04;41.00
48156;BME280;35568;48.104;11.782;2023-02-19T11:03:13;95960.78;;;10.91;40.01
48156;BME280;35568;48.104;11.782;2023-02-19T11:05:50;95957.26;;;11.03;39.97
48156;BME280;35568;48.104;11.782;2023-02-19T11:08:21;95963.32;;;11.33;39.94
48156;BME280;35568;48.104;11.782;2023-02-19T11:10:49;95957.31;;;11.45;39.94
48156;BME280;35568;48.104;11.782;2023-02-19T11:13:22;95956.34;;;11.69;38.98
48156;BME280;35568;48.104;11.782;2023-02-19T11:15:52;95956.94;;;11.59;39.12
48156;BME280;35568;48.104;11.782;2023-02-19T11:18:22;95960.33;;;11.03;38.72
48156;BME280;35568;48.104;11.782;2023-02-19T11:20:51;95956.55;;;10.71;39.41
48156;BME280;35568;48.104;11.782;2023-02-19T11:23:22;95947.56;;;10.88;39.51
48156;BME280;35568;48.104;11.782;2023-02-19T11:25:51;95951.07;;;10.37;39.64
48156;BME280;35568;48.104;11.782;2023-02-19T11:28:25;95952.38;;;10.49;39.67
48156;BME280;35568;48.104;11.782;2023-02-19T11:30:53;95960.34;;;10.57;39.20
48156;BME280;35568;48.104;11.782;2023-02-19T11:33:24;95950.57;;;10.84;39.11
48156;BME280;35568;48.104;11.782;2023-02-19T11:35:57;95961.77;;;10.50;39.70
48156;BME280;35568;48.104;11.782;2023-02-19T11:38:26;95963.49;;;10.49;39.68
48156;BME280;35568;48.104;11.782;2023-02-19T11:41:01;95962.28;;;10.44;40.30
48156;BME280;35568;48.104;11.782;2023-02-19T11:43:41;95959.61;;;10.18;40.70
48156;BME280;35568;48.104;11.782;2023-02-19T11:46:18;95959.65;;;10.41;40.41
48156;BME280;35568;48.104;11.782;2023-02-19T11:48:53;95968.19;;;10.42;39.65
48156;BME280;35568;48.104;11.782;2023-02-19T11:51:34;95960.73;;;10.56;40.45
48156;BME280;35568;48.104;11.782;2023-02-19T11:54:14;95957.55;;;10.57;39.65
48156;BME280;35568;48.104;11.782;2023-02-19T11:56:48;95960.19;;;10.58;40.21
48156;BME280;35568;48.104;11.782;2023-02-19T11:59:26;95964.92;;;10.32;40.01
48156;BME280;35568;48.104;11.782;2023-02-19T12:02:12;95965.75;;;10.71;40.56
48156;BME280;35568;48.104;11.782;2023-02-19T12:05:12;95972.90;;;10.05;41.24
48156;BME280;35568;48.104;11.782;2023-02-19T12:08:09;95971.72;;;9.32;45.37
48156;BME280;35568;48.104;11.782;2023-02-19T12:10:49;95969.31;;;9.21;47.01
48156;BME280;35568;48.104;11.782;2023-02-19T12:13:23;95968.66;;;9.06;47.24
48156;BME280;35568;48.104;11.782;2023-02-19T12:16:01;95964.14;;;9.01;45.68
48156;BME280;35568;48.104;11.782;2023-02-19T12:18:54;95968.28;;;8.95;45.85
48156;BME280;35568;48.104;11.782;2023-02-19T12:21:35;95973.18;;;9.09;44.68
48156;BME280;35568;48.104;11.782;2023-02-19T12:24:58;95976.76;;;9.21;43.61
48156;BME280;35568;48.104;11.782;2023-02-19T12:27:43;95978.25;;;8.96;43.83
48156;BME280;35568;48.104;11.782;2023-02-19T12:30:26;95968.64;;;9.37;43.04
48156;BME280;35568;48.104;11.782;2023-02-19T12:33:08;95971.67;;;9.87;42.42
48156;BME280;35568;48.104;11.782;2023-02-19T12:35:46;95967.65;;;10.02;41.18
48156;BME280;35568;48.104;11.782;2023-02-19T12:38:21;95970.70;;;10.29;41.23
48156;BME280;35568;48.104;11.782;2023-02-19T12:41:03;95978.31;;;10.67;40.42
48156;BME280;35568;48.104;11.782;2023-02-19T12:43:37;95985.78;;;10.85;39.79
48156;BME280;35568;48.104;11.782;2023-02-19T12:46:11;95977.59;;;10.79;39.67
48156;BME280;35568;48.104;11.782;2023-02-19T12:48:45;95980.61;;;10.60;39.47
48156;BME280;35568;48.104;11.782;2023-02-19T12:51:20;95989.95;;;10.71;39.29
48156;BME280;35568;48.104;11.782;2023-02-19T12:53:53;95990.90;;;10.07;40.14
48156;BME280;35568;48.104;11.782;2023-02-19T12:56:26;95986.89;;;9.84;41.41
48156;BME280;35568;48.104;11.782;2023-02-19T12:58:58;96002.75;;;9.40;42.19
48156;BME280;35568;48.104;11.782;2023-02-19T13:01:29;96010.72;;;9.18;42.75
48156;BME280;35568;48.104;11.782;2023-02-19T13:04:12;96007.86;;;8.75;44.49
48156;BME280;35568;48.104;11.782;2023-02-19T13:06:43;96013.75;;;8.61;44.70
48156;BME280;35568;48.104;11.782;2023-02-19T13:09:16;96007.03;;;8.58;43.89
48156;BME280;35568;48.104;11.782;2023-02-19T13:11:48;96000.68;;;8.87;42.81
48156;BME280;35568;48.104;11.782;2023-02-19T13:14:21;96009.73;;;8.83;43.02